sensor_id;sensor_type;location;lat;lon;timestamp;temperature;humidity
31271;DHT22;17904;47.420;9.310;2022-11-18T00:01:15;7.20;99.90
31271;DHT22;17904;47.420;9.310;2022-11-18T00:03:43;7.20;99.90
31271;DHT22;17904;47.420;9.310;2022-11-18T00:06:13;7.20;99.90
31271;DHT22;17904;47.420;9.310;2022-11-18T00:08:41;7.20;99.90
31271;DHT22;17904;47.420;9.310;2022-11-18T00:11:13;7.20;99.90
31271;DHT22;17904;47.420;9.310;2022-11-18T00:14:05;7.20;99.90
31271;DHT22;17904;47.420;9.310;2022-11-18T00:16:58;7.20;99.90
31271;DHT22;17904;47.420;9.310;2022-11-18T00:19:37;7.20;99.90
31271;DHT22;17904;47.420;9.310;2022-11-18T00:22:06;7.20;99.90
31271;DHT22;17904;47.420;9.310;2022-11-18T00:24:33;7.20;99.90
31271;DHT22;17904;47.420;9.310;2022-11-18T00:27:00;7.10;99.90
31271;DHT22;17904;47.420;9.310;2022-11-18T00:29:27;7.10;99.90
31271;DHT22;17904;47.420;9.310;2022-11-18T00:31:54;7.10;99.90
31271;DHT22;17904;47.420;9.310;2022-11-18T00:34:21;7.10;99.90
31271;DHT22;17904;47.420;9.310;2022-11-18T00:36:48;7.10;99.90
31271;DHT22;17904;47.420;9.310;2022-11-18T00:39:16;7.10;99.90
31271;DHT22;17904;47.420;9.310;2022-11-18T00:41:45;7.10;99.90
31271;DHT22;17904;47.420;9.310;2022-11-18T00:44:30;7.10;99.90
31271;DHT22;17904;47.420;9.310;2022-11-18T00:46:57;7.10;99.90
31271;DHT22;17904;47.420;9.310;2022-11-18T00:49:24;7.10;99.90
31271;DHT22;17904;47.420;9.310;2022-11-18T00:51:50;7.00;99.90
31271;DHT22;17904;47.420;9.310;2022-11-18T00:54:17;7.00;99.90
31271;DHT22;17904;47.420;9.310;2022-11-18T00:56:44;7.00;99.90
31271;DHT22;17904;47.420;9.310;2022-11-18T00:59:11;7.00;99.90
31271;DHT22;17904;47.420;9.310;2022-11-18T01:01:38;7.00;99.90
31271;DHT22;17904;47.420;9.310;2022-11-18T01:04:04;6.90;99.90
31271;DHT22;17904;47.420;9.310;2022-11-18T01:06:31;7.00;99.90
31271;DHT22;17904;47.420;9.310;2022-11-18T01:08:58;6.90;99.90
31271;DHT22;17904;47.420;9.310;2022-11-18T01:11:25;7.00;99.90
31271;DHT22;17904;47.420;9.310;2022-11-18T01:14:10;7.00;99.90
31271;DHT22;17904;47.420;9.310;2022-11-18T01:16:37;7.00;99.90
31271;DHT22;17904;47.420;9.310;2022-11-18T01:19:04;7.00;99.90
31271;DHT22;17904;47.420;9.310;2022-11-18T01:21:30;7.00;99.90
31271;DHT22;17904;47.420;9.310;2022-11-18T01:23:57;7.00;99.90
31271;DHT22;17904;47.420;9.310;2022-11-18T01:26:24;6.90;99.90
31271;DHT22;17904;47.420;9.310;2022-11-18T01:28:54;7.00;99.90
31271;DHT22;17904;47.420;9.310;2022-11-18T01:31:21;7.00;99.90
31271;DHT22;17904;47.420;9.310;2022-11-18T01:33:47;6.90;99.90
31271;DHT22;17904;47.420;9.310;2022-11-18T01:36:17;7.00;99.90
31271;DHT22;17904;47.420;9.310;2022-11-18T01:38:45;7.00;99.90
31271;DHT22;17904;47.420;9.310;2022-11-18T01:41:12;7.00;99.90
31271;DHT22;17904;47.420;9.310;2022-11-18T01:43:56;7.00;99.90
31271;DHT22;17904;47.420;9.310;2022-11-18T01:46:25;7.00;99.90
31271;DHT22;17904;47.420;9.310;2022-11-18T01:49:13;7.00;99.90
31271;DHT22;17904;47.420;9.310;2022-11-18T01:51:50;7.00;99.90
31271;DHT22;17904;47.420;9.310;2022-11-18T01:54:30;6.90;99.90
31271;DHT22;17904;47.420;9.310;2022-11-18T01:57:02;7.00;99.90
31271;DHT22;17904;47.420;9.310;2022-11-18T01:59:35;7.00;99.90
31271;DHT22;17904;47.420;9.310;2022-11-18T02:02:06;7.00;99.90
31271;DHT22;17904;47.420;9.310;2022-11-18T02:04:34;7.10;99.90
31271;DHT22;17904;47.420;9.310;2022-11-18T02:07:01;7.10;99.90
31271;DHT22;17904;47.420;9.310;2022-11-18T02:09:28;7.10;99.90
31271;DHT22;17904;47.420;9.310;2022-11-18T02:11:56;7.10;99.90
31271;DHT22;17904;47.420;9.310;2022-11-18T02:14:29;7.10;99.90
31271;DHT22;17904;47.420;9.310;2022-11-18T02:28:09;6.70;99.90
31271;DHT22;17904;47.420;9.310;2022-11-18T02:31:05;6.60;99.90
31271;DHT22;17904;47.420;9.310;2022-11-18T02:33:37;6.50;99.90
31271;DHT22;17904;47.420;9.310;2022-11-18T02:36:19;6.50;99.90
31271;DHT22;17904;47.420;9.310;2022-11-18T02:38:54;6.40;99.90
31271;DHT22;17904;47.420;9.310;2022-11-18T02:41:25;6.40;99.90
31271;DHT22;17904;47.420;9.310;2022-11-18T02:43:56;6.40;99.90
31271;DHT22;17904;47.420;9.310;2022-11-18T02:46:29;6.40;99.90
31271;DHT22;17904;47.420;9.310;2022-11-18T02:49:00;6.30;99.90
31271;DHT22;17904;47.420;9.310;2022-11-18T02:51:30;6.30;99.90
31271;DHT22;17904;47.420;9.310;2022-11-18T02:54:02;6.30;99.90
31271;DHT22;17904;47.420;9.310;2022-11-18T02:56:31;6.30;99.90
31271;DHT22;17904;47.420;9.310;2022-11-18T02:58:59;6.30;99.90
31271;DHT22;17904;47.420;9.310;2022-11-18T03:01:27;6.20;99.90
31271;DHT22;17904;47.420;9.310;2022-11-18T03:03:55;6.20;99.90
31271;DHT22;17904;47.420;9.310;2022-11-18T03:09:14;6.20;99.90
31271;DHT22;17904;47.420;9.310;2022-11-18T03:20:24;6.10;99.90
31271;DHT22;17904;47.420;9.310;2022-11-18T03:23:03;6.10;99.90
31271;DHT22;17904;47.420;9.310;2022-11-18T03:28:30;6.20;99.90
31271;DHT22;17904;47.420;9.310;2022-11-18T03:31:05;6.10;99.90
31271;DHT22;17904;47.420;9.310;2022-11-18T03:33:37;6.10;99.90
31271;DHT22;17904;47.420;9.310;2022-11-18T03:36:06;6.10;99.90
31271;DHT22;17904;47.420;9.310;2022-11-18T03:38:38;6.10;99.90
31271;DHT22;17904;47.420;9.310;2022-11-18T03:41:08;6.10;99.90
31271;DHT22;17904;47.420;9.310;2022-11-18T03:43:39;6.10;99.90
31271;DHT22;17904;47.420;9.310;2022-11-18T03:46:25;6.20;99.90
31271;DHT22;17904;47.420;9.310;2022-11-18T03:48:55;6.20;99.90
31271;DHT22;17904;47.420;9.310;2022-11-18T03:51:32;6.30;99.90
31271;DHT22;17904;47.420;9.310;2022-11-18T03:54:26;6.30;99.90
31271;DHT22;17904;47.420;9.310;2022-11-18T03:57:01;6.30;99.90
31271;DHT22;17904;47.420;9.310;2022-11-18T03:59:36;6.30;99.90
31271;DHT22;17904;47.420;9.310;2022-11-18T04:02:10;6.30;99.90
31271;DHT22;17904;47.420;9.310;2022-11-18T04:04:39;6.30;99.90
31271;DHT22;17904;47.420;9.310;2022-11-18T04:07:29;6.30;99.90
31271;DHT22;17904;47.420;9.310;2022-11-18T04:10:18;6.20;99.90
31271;DHT22;17904;47.420;9.310;2022-11-18T04:13:04;6.20;99.90
31271;DHT22;17904;47.420;9.310;2022-11-18T04:15:36;6.10;99.90
31271;DHT22;17904;47.420;9.310;2022-11-18T04:18:04;6.10;99.90
31271;DHT22;17904;47.420;9.310;2022-11-18T04:20:31;6.10;99.90
31271;DHT22;17904;47.420;9.310;2022-11-18T04:22:59;6.00;99.90
31271;DHT22;17904;47.420;9.310;2022-11-18T04:25:26;6.00;99.90
31271;DHT22;17904;47.420;9.310;2022-11-18T04:27:53;5.90;99.90
31271;DHT22;17904;47.420;9.310;2022-11-18T04:30:20;5.90;99.90
31271;DHT22;17904;47.420;9.310;2022-11-18T04:32:47;5.80;99.90
31271;DHT22;17904;47.420;9.310;2022-11-18T04:35:14;5.80;99.90
31271;DHT22;17904;47.420;9.310;2022-11-18T04:37:41;5.80;99.90
31271;DHT22;17904;47.420;9.310;2022-11-18T04:40:08;5.80;99.90
31271;DHT22;17904;47.420;9.310;2022-11-18T04:42:35;5.70;99.90
31271;DHT22;17904;47.420;9.310;2022-11-18T04:45:03;5.80;99.90
31271;DHT22;17904;47.420;9.310;2022-11-18T04:47:30;5.80;99.90
31271;DHT22;17904;47.420;9.310;2022-11-18T04:49:56;5.80;99.90
31271;DHT22;17904;47.420;9.310;2022-11-18T04:52:23;5.90;99.90
31271;DHT22;17904;47.420;9.310;2022-11-18T04:54:50;5.90;99.90
31271;DHT22;17904;47.420;9.310;2022-11-18T04:57:17;6.00;99.90
31271;DHT22;17904;47.420;9.310;2022-11-18T04:59:44;6.10;99.90
31271;DHT22;17904;47.420;9.310;2022-11-18T05:02:11;6.20;99.90
31271;DHT22;17904;47.420;9.310;2022-11-18T05:04:38;6.30;99.90
31271;DHT22;17904;47.420;9.310;2022-11-18T05:07:05;6.40;99.90
31271;DHT22;17904;47.420;9.310;2022-11-18T05:09:33;6.40;99.90
31271;DHT22;17904;47.420;9.310;2022-11-18T05:12:00;6.50;99.90
31271;DHT22;17904;47.420;9.310;2022-11-18T05:14:45;6.50;99.90
31271;DHT22;17904;47.420;9.310;2022-11-18T05:17:16;6.50;99.90
31271;DHT22;17904;47.420;9.310;2022-11-18T05:19:44;6.40;99.90
31271;DHT22;17904;47.420;9.310;2022-11-18T05:22:10;6.40;99.90
31271;DHT22;17904;47.420;9.310;2022-11-18T05:24:37;6.40;99.90
31271;DHT22;17904;47.420;9.310;2022-11-18T05:27:04;6.40;99.90
31271;DHT22;17904;47.420;9.310;2022-11-18T05:29:31;6.40;99.90
31271;DHT22;17904;47.420;9.310;2022-11-18T05:31:59;6.30;99.90
31271;DHT22;17904;47.420;9.310;2022-11-18T05:34:25;6.30;99.90
31271;DHT22;17904;47.420;9.310;2022-11-18T05:36:52;6.30;99.90
31271;DHT22;17904;47.420;9.310;2022-11-18T05:39:19;6.40;99.90
31271;DHT22;17904;47.420;9.310;2022-11-18T05:41:46;6.40;99.90
31271;DHT22;17904;47.420;9.310;2022-11-18T05:44:31;6.40;99.90
31271;DHT22;17904;47.420;9.310;2022-11-18T05:46:58;6.50;99.90
31271;DHT22;17904;47.420;9.310;2022-11-18T05:49:25;6.50;99.90
31271;DHT22;17904;47.420;9.310;2022-11-18T05:51:52;6.50;99.90
31271;DHT22;17904;47.420;9.310;2022-11-18T05:54:20;6.50;99.90
31271;DHT22;17904;47.420;9.310;2022-11-18T05:56:47;6.40;99.90
31271;DHT22;17904;47.420;9.310;2022-11-18T05:59:14;6.40;99.90
31271;DHT22;17904;47.420;9.310;2022-11-18T06:04:17;6.30;99.90
31271;DHT22;17904;47.420;9.310;2022-11-18T06:06:47;6.30;99.90
31271;DHT22;17904;47.420;9.310;2022-11-18T06:09:17;6.20;99.90
31271;DHT22;17904;47.420;9.310;2022-11-18T06:11:49;6.20;99.90
31271;DHT22;17904;47.420;9.310;2022-11-18T06:14:21;6.10;99.90
31271;DHT22;17904;47.420;9.310;2022-11-18T06:16:55;6.10;99.90
31271;DHT22;17904;47.420;9.310;2022-11-18T06:19:24;6.10;99.90
31271;DHT22;17904;47.420;9.310;2022-11-18T06:21:52;6.10;99.90
31271;DHT22;17904;47.420;9.310;2022-11-18T06:24:19;6.10;99.90
31271;DHT22;17904;47.420;9.310;2022-11-18T06:26:46;6.10;99.90
31271;DHT22;17904;47.420;9.310;2022-11-18T06:29:15;6.10;99.90
31271;DHT22;17904;47.420;9.310;2022-11-18T06:31:49;6.10;99.90
31271;DHT22;17904;47.420;9.310;2022-11-18T06:34:16;6.10;99.90
31271;DHT22;17904;47.420;9.310;2022-11-18T06:36:43;6.00;99.90
31271;DHT22;17904;47.420;9.310;2022-11-18T06:39:10;6.00;99.90
31271;DHT22;17904;47.420;9.310;2022-11-18T06:41:36;6.00;99.90
31271;DHT22;17904;47.420;9.310;2022-11-18T06:44:03;6.00;99.90
31271;DHT22;17904;47.420;9.310;2022-11-18T06:46:30;6.00;99.90
31271;DHT22;17904;47.420;9.310;2022-11-18T06:49:15;6.00;99.90
31271;DHT22;17904;47.420;9.310;2022-11-18T06:51:43;6.00;99.90
31271;DHT22;17904;47.420;9.310;2022-11-18T06:54:09;6.00;99.90
31271;DHT22;17904;47.420;9.310;2022-11-18T06:56:37;6.00;99.90
31271;DHT22;17904;47.420;9.310;2022-11-18T06:59:04;6.10;99.90
31271;DHT22;17904;47.420;9.310;2022-11-18T07:01:33;6.10;99.90
31271;DHT22;17904;47.420;9.310;2022-11-18T07:04:01;6.10;99.90
31271;DHT22;17904;47.420;9.310;2022-11-18T07:06:31;6.00;99.90
31271;DHT22;17904;47.420;9.310;2022-11-18T07:09:03;6.10;99.90
31271;DHT22;17904;47.420;9.310;2022-11-18T07:11:30;6.00;99.90
31271;DHT22;17904;47.420;9.310;2022-11-18T07:13:57;5.90;99.90
31271;DHT22;17904;47.420;9.310;2022-11-18T07:16:25;5.90;99.90
31271;DHT22;17904;47.420;9.310;2022-11-18T07:18:54;5.80;99.90
31271;DHT22;17904;47.420;9.310;2022-11-18T07:21:23;5.70;99.90
31271;DHT22;17904;47.420;9.310;2022-11-18T07:23:51;5.70;99.90
31271;DHT22;17904;47.420;9.310;2022-11-18T07:26:18;5.60;99.90
31271;DHT22;17904;47.420;9.310;2022-11-18T07:28:45;5.60;99.90
31271;DHT22;17904;47.420;9.310;2022-11-18T07:31:19;5.50;99.90
31271;DHT22;17904;47.420;9.310;2022-11-18T07:33:47;5.50;99.90
31271;DHT22;17904;47.420;9.310;2022-11-18T07:36:16;5.50;99.90
31271;DHT22;17904;47.420;9.310;2022-11-18T07:38:43;5.50;99.90
31271;DHT22;17904;47.420;9.310;2022-11-18T07:41:29;5.50;99.90
31271;DHT22;17904;47.420;9.310;2022-11-18T07:45:58;5.50;99.90
31271;DHT22;17904;47.420;9.310;2022-11-18T07:48:33;5.50;99.90
31271;DHT22;17904;47.420;9.310;2022-11-18T07:51:00;5.60;99.90
31271;DHT22;17904;47.420;9.310;2022-11-18T07:53:29;5.60;99.90
31271;DHT22;17904;47.420;9.310;2022-11-18T07:55:55;5.70;99.90
31271;DHT22;17904;47.420;9.310;2022-11-18T07:58:22;5.70;99.90
31271;DHT22;17904;47.420;9.310;2022-11-18T08:00:49;5.70;99.90
31271;DHT22;17904;47.420;9.310;2022-11-18T08:03:15;5.80;99.90
31271;DHT22;17904;47.420;9.310;2022-11-18T08:05:42;5.80;99.90
31271;DHT22;17904;47.420;9.310;2022-11-18T08:08:09;5.90;99.90
31271;DHT22;17904;47.420;9.310;2022-11-18T08:10:36;6.00;99.90
31271;DHT22;17904;47.420;9.310;2022-11-18T08:13:03;6.10;99.90
31271;DHT22;17904;47.420;9.310;2022-11-18T08:15:30;6.20;99.90
31271;DHT22;17904;47.420;9.310;2022-11-18T08:17:56;6.40;99.90
31271;DHT22;17904;47.420;9.310;2022-11-18T08:20:23;6.60;99.90
31271;DHT22;17904;47.420;9.310;2022-11-18T08:22:52;6.70;99.90
31271;DHT22;17904;47.420;9.310;2022-11-18T08:25:19;6.80;99.90
31271;DHT22;17904;47.420;9.310;2022-11-18T08:27:46;6.90;99.90
31271;DHT22;17904;47.420;9.310;2022-11-18T08:30:13;6.90;99.90
31271;DHT22;17904;47.420;9.310;2022-11-18T08:32:40;6.90;99.90
31271;DHT22;17904;47.420;9.310;2022-11-18T08:35:07;6.90;99.90
31271;DHT22;17904;47.420;9.310;2022-11-18T08:37:37;6.90;99.90
31271;DHT22;17904;47.420;9.310;2022-11-18T08:40:03;6.90;99.90
31271;DHT22;17904;47.420;9.310;2022-11-18T08:42:31;7.00;99.90
31271;DHT22;17904;47.420;9.310;2022-11-18T08:45:00;7.00;99.90
31271;DHT22;17904;47.420;9.310;2022-11-18T08:47:26;7.10;99.90
31271;DHT22;17904;47.420;9.310;2022-11-18T08:49:53;7.10;99.90
31271;DHT22;17904;47.420;9.310;2022-11-18T08:52:20;7.10;99.90
31271;DHT22;17904;47.420;9.310;2022-11-18T08:54:47;7.10;99.90
31271;DHT22;17904;47.420;9.310;2022-11-18T08:57:13;7.10;99.90
31271;DHT22;17904;47.420;9.310;2022-11-18T08:59:40;7.10;99.90
31271;DHT22;17904;47.420;9.310;2022-11-18T09:02:18;7.20;99.90
31271;DHT22;17904;47.420;9.310;2022-11-18T09:04:48;7.20;99.90
31271;DHT22;17904;47.420;9.310;2022-11-18T09:07:16;7.20;99.90
31271;DHT22;17904;47.420;9.310;2022-11-18T09:09:44;7.20;99.90
31271;DHT22;17904;47.420;9.310;2022-11-18T09:12:11;7.30;99.90
31271;DHT22;17904;47.420;9.310;2022-11-18T09:14:44;7.30;99.90
31271;DHT22;17904;47.420;9.310;2022-11-18T09:17:30;7.30;99.90
31271;DHT22;17904;47.420;9.310;2022-11-18T09:19:57;7.30;99.90
31271;DHT22;17904;47.420;9.310;2022-11-18T09:22:24;7.30;99.90
31271;DHT22;17904;47.420;9.310;2022-11-18T09:24:51;7.40;99.90
31271;DHT22;17904;47.420;9.310;2022-11-18T09:27:18;7.60;99.90
31271;DHT22;17904;47.420;9.310;2022-11-18T09:29:45;7.90;99.90
31271;DHT22;17904;47.420;9.310;2022-11-18T09:32:13;8.20;99.90
31271;DHT22;17904;47.420;9.310;2022-11-18T09:34:39;8.40;99.90
31271;DHT22;17904;47.420;9.310;2022-11-18T09:37:06;8.60;99.90
31271;DHT22;17904;47.420;9.310;2022-11-18T09:39:33;8.70;99.90
31271;DHT22;17904;47.420;9.310;2022-11-18T09:42:19;8.70;99.90
31271;DHT22;17904;47.420;9.310;2022-11-18T09:45:06;8.60;99.90
31271;DHT22;17904;47.420;9.310;2022-11-18T09:47:40;8.40;99.90
31271;DHT22;17904;47.420;9.310;2022-11-18T09:50:12;8.30;99.90
31271;DHT22;17904;47.420;9.310;2022-11-18T09:53:03;8.20;99.90
31271;DHT22;17904;47.420;9.310;2022-11-18T09:55:34;8.00;99.90
31271;DHT22;17904;47.420;9.310;2022-11-18T09:58:03;7.90;99.90
31271;DHT22;17904;47.420;9.310;2022-11-18T10:00:31;7.90;99.90
31271;DHT22;17904;47.420;9.310;2022-11-18T10:03:02;7.80;99.90
31271;DHT22;17904;47.420;9.310;2022-11-18T10:08:23;7.90;99.90
31271;DHT22;17904;47.420;9.310;2022-11-18T10:16:31;8.00;99.90
31271;DHT22;17904;47.420;9.310;2022-11-18T10:19:10;8.00;99.90
31271;DHT22;17904;47.420;9.310;2022-11-18T10:21:54;8.00;99.90
31271;DHT22;17904;47.420;9.310;2022-11-18T10:24:31;7.90;99.90
31271;DHT22;17904;47.420;9.310;2022-11-18T10:26:59;7.90;99.90
31271;DHT22;17904;47.420;9.310;2022-11-18T10:29:26;7.80;99.90
31271;DHT22;17904;47.420;9.310;2022-11-18T10:32:03;7.70;99.90
31271;DHT22;17904;47.420;9.310;2022-11-18T10:34:31;7.70;99.90
31271;DHT22;17904;47.420;9.310;2022-11-18T10:37:06;7.70;99.90
31271;DHT22;17904;47.420;9.310;2022-11-18T10:39:59;7.60;99.90
31271;DHT22;17904;47.420;9.310;2022-11-18T10:42:43;7.60;99.90
31271;DHT22;17904;47.420;9.310;2022-11-18T10:48:18;7.50;99.90
31271;DHT22;17904;47.420;9.310;2022-11-18T10:50:46;7.50;99.90
31271;DHT22;17904;47.420;9.310;2022-11-18T10:53:35;7.50;99.90
31271;DHT22;17904;47.420;9.310;2022-11-18T10:56:20;7.40;99.90
31271;DHT22;17904;47.420;9.310;2022-11-18T10:58:49;7.50;99.90
31271;DHT22;17904;47.420;9.310;2022-11-18T11:01:21;7.40;99.90
31271;DHT22;17904;47.420;9.310;2022-11-18T11:04:18;7.50;99.90
31271;DHT22;17904;47.420;9.310;2022-11-18T11:06:46;7.40;99.90
31271;DHT22;17904;47.420;9.310;2022-11-18T11:14:50;7.40;99.90
31271;DHT22;17904;47.420;9.310;2022-11-18T11:17:33;7.50;99.90
31271;DHT22;17904;47.420;9.310;2022-11-18T11:20:13;7.50;99.90
31271;DHT22;17904;47.420;9.310;2022-11-18T11:22:43;7.50;99.90
31271;DHT22;17904;47.420;9.310;2022-11-18T11:25:32;7.50;99.90
31271;DHT22;17904;47.420;9.310;2022-11-18T11:28:47;7.50;99.90
31271;DHT22;17904;47.420;9.310;2022-11-18T11:34:10;7.50;99.90
31271;DHT22;17904;47.420;9.310;2022-11-18T11:36:59;7.50;99.90
31271;DHT22;17904;47.420;9.310;2022-11-18T11:48:08;7.60;99.90
31271;DHT22;17904;47.420;9.310;2022-11-18T11:50:52;7.60;99.90
31271;DHT22;17904;47.420;9.310;2022-11-18T12:00:01;7.60;99.90
31271;DHT22;17904;47.420;9.310;2022-11-18T12:05:35;7.60;99.90
31271;DHT22;17904;47.420;9.310;2022-11-18T12:08:07;7.60;99.90
31271;DHT22;17904;47.420;9.310;2022-11-18T12:11:06;7.60;99.90
31271;DHT22;17904;47.420;9.310;2022-11-18T12:13:52;7.60;99.90
31271;DHT22;17904;47.420;9.310;2022-11-18T12:16:23;7.50;99.90
31271;DHT22;17904;47.420;9.310;2022-11-18T12:32:30;7.40;99.90
31271;DHT22;17904;47.420;9.310;2022-11-18T12:38:00;7.30;99.90
31271;DHT22;17904;47.420;9.310;2022-11-18T12:42:57;7.20;99.90
31271;DHT22;17904;47.420;9.310;2022-11-18T12:48:29;7.10;99.90
31271;DHT22;17904;47.420;9.310;2022-11-18T12:53:57;7.00;99.90
31271;DHT22;17904;47.420;9.310;2022-11-18T12:56:26;7.00;99.90
31271;DHT22;17904;47.420;9.310;2022-11-18T12:58:57;7.00;99.90
31271;DHT22;17904;47.420;9.310;2022-11-18T13:01:31;7.00;99.90
31271;DHT22;17904;47.420;9.310;2022-11-18T13:04:18;7.00;99.90
31271;DHT22;17904;47.420;9.310;2022-11-18T13:06:49;7.00;99.90
31271;DHT22;17904;47.420;9.310;2022-11-18T13:09:22;7.10;99.90
31271;DHT22;17904;47.420;9.310;2022-11-18T13:11:54;7.10;99.90
31271;DHT22;17904;47.420;9.310;2022-11-18T13:26:27;7.20;99.90
31271;DHT22;17904;47.420;9.310;2022-11-18T13:29:26;7.20;99.90
31271;DHT22;17904;47.420;9.310;2022-11-18T13:34:42;7.30;99.90
31271;DHT22;17904;47.420;9.310;2022-11-18T13:37:15;7.30;99.90
31271;DHT22;17904;47.420;9.310;2022-11-18T13:39:44;7.30;99.90
31271;DHT22;17904;47.420;9.310;2022-11-18T13:42:17;7.20;99.90
31271;DHT22;17904;47.420;9.310;2022-11-18T13:44:56;7.20;99.90
31271;DHT22;17904;47.420;9.310;2022-11-18T13:47:27;7.20;99.90
31271;DHT22;17904;47.420;9.310;2022-11-18T13:55:27;7.30;99.90
31271;DHT22;17904;47.420;9.310;2022-11-18T13:58:04;7.30;99.90
31271;DHT22;17904;47.420;9.310;2022-11-18T14:00:34;7.30;99.90
31271;DHT22;17904;47.420;9.310;2022-11-18T14:03:25;7.20;99.90
31271;DHT22;17904;47.420;9.310;2022-11-18T14:05:55;7.20;99.90
31271;DHT22;17904;47.420;9.310;2022-11-18T14:08:27;7.10;99.90
31271;DHT22;17904;47.420;9.310;2022-11-18T14:10:54;7.10;99.90
31271;DHT22;17904;47.420;9.310;2022-11-18T14:13:27;7.10;99.90
31271;DHT22;17904;47.420;9.310;2022-11-18T14:16:03;7.10;99.90
31271;DHT22;17904;47.420;9.310;2022-11-18T14:18:50;7.00;99.90
31271;DHT22;17904;47.420;9.310;2022-11-18T14:21:28;7.00;99.90
31271;DHT22;17904;47.420;9.310;2022-11-18T14:23:56;7.00;99.90
31271;DHT22;17904;47.420;9.310;2022-11-18T14:26:31;7.00;99.90
31271;DHT22;17904;47.420;9.310;2022-11-18T14:29:13;7.00;99.90
31271;DHT22;17904;47.420;9.310;2022-11-18T14:31:41;7.00;99.90
31271;DHT22;17904;47.420;9.310;2022-11-18T14:34:25;7.00;99.90
31271;DHT22;17904;47.420;9.310;2022-11-18T14:36:52;7.00;99.90
31271;DHT22;17904;47.420;9.310;2022-11-18T14:41:53;7.00;99.90
31271;DHT22;17904;47.420;9.310;2022-11-18T14:44:22;7.00;99.90
31271;DHT22;17904;47.420;9.310;2022-11-18T14:46:54;6.90;99.90
31271;DHT22;17904;47.420;9.310;2022-11-18T14:49:24;6.90;99.90
31271;DHT22;17904;47.420;9.310;2022-11-18T14:51:52;6.90;99.90
31271;DHT22;17904;47.420;9.310;2022-11-18T14:54:22;6.80;99.90
31271;DHT22;17904;47.420;9.310;2022-11-18T14:56:56;6.80;99.90
31271;DHT22;17904;47.420;9.310;2022-11-18T14:59:23;6.70;99.90
31271;DHT22;17904;47.420;9.310;2022-11-18T15:01:50;6.60;99.90
31271;DHT22;17904;47.420;9.310;2022-11-18T15:04:17;6.60;99.90
31271;DHT22;17904;47.420;9.310;2022-11-18T15:06:46;6.50;99.90
31271;DHT22;17904;47.420;9.310;2022-11-18T15:09:13;6.50;99.90
31271;DHT22;17904;47.420;9.310;2022-11-18T15:11:40;6.40;99.90
31271;DHT22;17904;47.420;9.310;2022-11-18T15:14:06;6.40;99.90
31271;DHT22;17904;47.420;9.310;2022-11-18T15:16:34;6.30;99.90
31271;DHT22;17904;47.420;9.310;2022-11-18T15:19:03;6.40;99.90
31271;DHT22;17904;47.420;9.310;2022-11-18T15:21:30;6.40;99.90
31271;DHT22;17904;47.420;9.310;2022-11-18T15:23:57;6.40;99.90
31271;DHT22;17904;47.420;9.310;2022-11-18T15:26:28;6.30;99.90
31271;DHT22;17904;47.420;9.310;2022-11-18T15:28:56;6.30;99.90
31271;DHT22;17904;47.420;9.310;2022-11-18T15:31:24;6.30;99.90
31271;DHT22;17904;47.420;9.310;2022-11-18T15:33:51;6.30;99.90
31271;DHT22;17904;47.420;9.310;2022-11-18T15:36:21;6.20;99.90
31271;DHT22;17904;47.420;9.310;2022-11-18T15:38:49;6.20;99.90
31271;DHT22;17904;47.420;9.310;2022-11-18T15:41:22;6.20;99.90
31271;DHT22;17904;47.420;9.310;2022-11-18T15:43:49;6.10;99.90
31271;DHT22;17904;47.420;9.310;2022-11-18T15:46:17;6.10;99.90
31271;DHT22;17904;47.420;9.310;2022-11-18T15:48:45;6.10;99.90
31271;DHT22;17904;47.420;9.310;2022-11-18T15:51:14;6.00;99.90
31271;DHT22;17904;47.420;9.310;2022-11-18T15:53:40;6.10;99.90
31271;DHT22;17904;47.420;9.310;2022-11-18T16:01:36;6.00;99.90
31271;DHT22;17904;47.420;9.310;2022-11-18T16:04:04;6.00;99.90
31271;DHT22;17904;47.420;9.310;2022-11-18T16:06:32;6.00;99.90
31271;DHT22;17904;47.420;9.310;2022-11-18T16:08:59;5.90;99.90
31271;DHT22;17904;47.420;9.310;2022-11-18T16:11:27;5.90;99.90
31271;DHT22;17904;47.420;9.310;2022-11-18T16:14:15;5.90;99.90
31271;DHT22;17904;47.420;9.310;2022-11-18T16:16:44;5.90;99.90
31271;DHT22;17904;47.420;9.310;2022-11-18T16:19:14;5.90;99.90
31271;DHT22;17904;47.420;9.310;2022-11-18T16:21:44;5.80;99.90
31271;DHT22;17904;47.420;9.310;2022-11-18T16:24:20;5.80;99.90
31271;DHT22;17904;47.420;9.310;2022-11-18T16:26:48;5.80;99.90
31271;DHT22;17904;47.420;9.310;2022-11-18T16:29:15;5.80;99.90
31271;DHT22;17904;47.420;9.310;2022-11-18T16:31:44;5.80;99.90
31271;DHT22;17904;47.420;9.310;2022-11-18T16:34:21;5.80;99.90
31271;DHT22;17904;47.420;9.310;2022-11-18T16:36:50;5.80;99.90
31271;DHT22;17904;47.420;9.310;2022-11-18T16:39:19;5.80;99.90
31271;DHT22;17904;47.420;9.310;2022-11-18T16:41:50;5.80;99.90
31271;DHT22;17904;47.420;9.310;2022-11-18T16:44:18;5.90;99.90
31271;DHT22;17904;47.420;9.310;2022-11-18T16:46:50;5.80;99.90
31271;DHT22;17904;47.420;9.310;2022-11-18T16:49:19;5.80;99.90
31271;DHT22;17904;47.420;9.310;2022-11-18T16:51:49;5.80;99.90
31271;DHT22;17904;47.420;9.310;2022-11-18T16:54:17;5.80;99.90
31271;DHT22;17904;47.420;9.310;2022-11-18T16:56:46;5.80;99.90
31271;DHT22;17904;47.420;9.310;2022-11-18T16:59:15;5.70;99.90
31271;DHT22;17904;47.420;9.310;2022-11-18T17:01:43;5.70;99.90
31271;DHT22;17904;47.420;9.310;2022-11-18T17:04:10;5.70;99.90
31271;DHT22;17904;47.420;9.310;2022-11-18T17:06:37;5.60;99.90
31271;DHT22;17904;47.420;9.310;2022-11-18T17:09:05;5.60;99.90
31271;DHT22;17904;47.420;9.310;2022-11-18T17:11:32;5.60;99.90
31271;DHT22;17904;47.420;9.310;2022-11-18T17:13:59;5.50;99.90
31271;DHT22;17904;47.420;9.310;2022-11-18T17:16:26;5.50;99.90
31271;DHT22;17904;47.420;9.310;2022-11-18T17:18:57;5.50;99.90
31271;DHT22;17904;47.420;9.310;2022-11-18T17:21:25;5.40;99.90
31271;DHT22;17904;47.420;9.310;2022-11-18T17:23:52;5.50;99.90
31271;DHT22;17904;47.420;9.310;2022-11-18T17:26:22;5.40;99.90
31271;DHT22;17904;47.420;9.310;2022-11-18T17:28:49;5.40;99.90
31271;DHT22;17904;47.420;9.310;2022-11-18T17:31:19;5.40;99.90
31271;DHT22;17904;47.420;9.310;2022-11-18T17:33:47;5.40;99.90
31271;DHT22;17904;47.420;9.310;2022-11-18T17:36:16;5.40;99.90
31271;DHT22;17904;47.420;9.310;2022-11-18T17:38:45;5.40;99.90
31271;DHT22;17904;47.420;9.310;2022-11-18T17:41:14;5.40;99.90
31271;DHT22;17904;47.420;9.310;2022-11-18T17:44:01;5.40;99.90
31271;DHT22;17904;47.420;9.310;2022-11-18T17:46:28;5.30;99.90
31271;DHT22;17904;47.420;9.310;2022-11-18T17:49:06;5.30;99.90
31271;DHT22;17904;47.420;9.310;2022-11-18T17:51:33;5.30;99.90
31271;DHT22;17904;47.420;9.310;2022-11-18T17:53:59;5.30;99.90
31271;DHT22;17904;47.420;9.310;2022-11-18T17:56:26;5.30;99.90
31271;DHT22;17904;47.420;9.310;2022-11-18T17:58:53;5.20;99.90
31271;DHT22;17904;47.420;9.310;2022-11-18T18:01:20;5.20;99.90
31271;DHT22;17904;47.420;9.310;2022-11-18T18:03:47;5.20;99.90
31271;DHT22;17904;47.420;9.310;2022-11-18T18:06:15;5.20;99.90
31271;DHT22;17904;47.420;9.310;2022-11-18T18:08:41;5.20;99.90
31271;DHT22;17904;47.420;9.310;2022-11-18T18:11:16;5.20;99.90